sensor_id;sensor_type;location;lat;lon;timestamp;pressure;altitude;pressure_sealevel;temperature;humidity
28167;BME280;15455;53.376;-6.262;2022-07-23T00:00:23;101373.28;;;14.76;100.00
28167;BME280;15455;53.376;-6.262;2022-07-23T00:03:08;101373.34;;;14.70;100.00
28167;BME280;15455;53.376;-6.262;2022-07-23T00:05:53;101376.72;;;14.80;100.00
28167;BME280;15455;53.376;-6.262;2022-07-23T00:08:39;101375.84;;;14.83;100.00
28167;BME280;15455;53.376;-6.262;2022-07-23T00:11:25;101367.09;;;14.77;100.00
28167;BME280;15455;53.376;-6.262;2022-07-23T00:14:10;101366.25;;;14.77;100.00
28167;BME280;15455;53.376;-6.262;2022-07-23T00:16:55;101357.50;;;14.76;100.00
28167;BME280;15455;53.376;-6.262;2022-07-23T00:19:41;101352.31;;;14.69;100.00
28167;BME280;15455;53.376;-6.262;2022-07-23T00:22:27;101360.22;;;14.67;100.00
28167;BME280;15455;53.376;-6.262;2022-07-23T00:25:14;101351.44;;;14.68;100.00
28167;BME280;15455;53.376;-6.262;2022-07-23T00:28:16;101354.09;;;14.67;100.00
28167;BME280;15455;53.376;-6.262;2022-07-23T00:31:01;101351.47;;;14.67;100.00
28167;BME280;15455;53.376;-6.262;2022-07-23T00:33:47;101356.72;;;14.67;100.00
28167;BME280;15455;53.376;-6.262;2022-07-23T00:36:34;101354.03;;;14.71;100.00
28167;BME280;15455;53.376;-6.262;2022-07-23T00:39:20;101358.34;;;14.79;100.00
28167;BME280;15455;53.376;-6.262;2022-07-23T00:42:09;101353.97;;;14.76;100.00
28167;BME280;15455;53.376;-6.262;2022-07-23T00:44:55;101355.69;;;14.80;100.00
28167;BME280;15455;53.376;-6.262;2022-07-23T00:47:40;101351.22;;;14.90;100.00
28167;BME280;15455;53.376;-6.262;2022-07-23T00:50:26;101349.44;;;14.92;100.00
28167;BME280;15455;53.376;-6.262;2022-07-23T00:53:12;101345.91;;;14.94;100.00
28167;BME280;15455;53.376;-6.262;2022-07-23T00:55:58;101339.75;;;14.97;100.00
28167;BME280;15455;53.376;-6.262;2022-07-23T00:58:44;101339.69;;;15.03;100.00
28167;BME280;15455;53.376;-6.262;2022-07-23T01:01:30;101340.56;;;15.05;100.00
28167;BME280;15455;53.376;-6.262;2022-07-23T01:04:16;101334.41;;;15.08;100.00
28167;BME280;15455;53.376;-6.262;2022-07-23T01:07:02;101333.47;;;15.10;100.00
28167;BME280;15455;53.376;-6.262;2022-07-23T01:09:49;101329.91;;;15.15;100.00
28167;BME280;15455;53.376;-6.262;2022-07-23T01:12:35;101324.66;;;15.15;100.00
28167;BME280;15455;53.376;-6.262;2022-07-23T01:15:21;101320.31;;;15.10;100.00
28167;BME280;15455;53.376;-6.262;2022-07-23T01:18:07;101320.38;;;15.06;100.00
28167;BME280;15455;53.376;-6.262;2022-07-23T01:20:55;101317.81;;;15.01;100.00
28167;BME280;15455;53.376;-6.262;2022-07-23T01:23:41;101314.34;;;14.98;100.00
28167;BME280;15455;53.376;-6.262;2022-07-23T01:26:27;101314.38;;;14.94;100.00
28167;BME280;15455;53.376;-6.262;2022-07-23T01:29:13;101303.91;;;14.90;100.00
28167;BME280;15455;53.376;-6.262;2022-07-23T01:32:00;101311.72;;;14.98;100.00
28167;BME280;15455;53.376;-6.262;2022-07-23T01:34:46;101315.28;;;14.90;100.00
28167;BME280;15455;53.376;-6.262;2022-07-23T01:37:32;101310.91;;;14.92;100.00
28167;BME280;15455;53.376;-6.262;2022-07-23T01:40:17;101307.41;;;14.90;100.00
28167;BME280;15455;53.376;-6.262;2022-07-23T01:43:05;101303.94;;;14.88;100.00
28167;BME280;15455;53.376;-6.262;2022-07-23T01:45:54;101299.59;;;14.84;100.00
28167;BME280;15455;53.376;-6.262;2022-07-23T01:48:43;101297.03;;;14.80;100.00
28167;BME280;15455;53.376;-6.262;2022-07-23T01:51:51;101295.28;;;14.79;100.00
28167;BME280;15455;53.376;-6.262;2022-07-23T01:54:52;101287.38;;;14.80;100.00
28167;BME280;15455;53.376;-6.262;2022-07-23T01:57:39;101287.34;;;14.82;100.00
28167;BME280;15455;53.376;-6.262;2022-07-23T02:00:24;101291.75;;;14.83;100.00
28167;BME280;15455;53.376;-6.262;2022-07-23T02:03:10;101291.69;;;14.86;100.00
28167;BME280;15455;53.376;-6.262;2022-07-23T02:05:55;101287.31;;;14.88;100.00
28167;BME280;15455;53.376;-6.262;2022-07-23T02:08:42;101277.69;;;14.85;100.00
28167;BME280;15455;53.376;-6.262;2022-07-23T02:11:28;101283.78;;;14.89;100.00
28167;BME280;15455;53.376;-6.262;2022-07-23T02:14:14;101280.31;;;14.87;100.00
28167;BME280;15455;53.376;-6.262;2022-07-23T02:17:00;101271.53;;;14.89;100.00
28167;BME280;15455;53.376;-6.262;2022-07-23T02:19:46;101275.03;;;14.88;100.00
28167;BME280;15455;53.376;-6.262;2022-07-23T02:22:31;101272.38;;;14.91;100.00
28167;BME280;15455;53.376;-6.262;2022-07-23T02:25:17;101265.34;;;14.90;100.00
28167;BME280;15455;53.376;-6.262;2022-07-23T02:28:03;101270.59;;;14.92;100.00
28167;BME280;15455;53.376;-6.262;2022-07-23T02:30:48;101253.16;;;14.86;100.00
28167;BME280;15455;53.376;-6.262;2022-07-23T02:33:34;101254.03;;;14.85;100.00
28167;BME280;15455;53.376;-6.262;2022-07-23T02:36:19;101243.56;;;14.82;100.00
28167;BME280;15455;53.376;-6.262;2022-07-23T02:39:05;101241.84;;;14.80;100.00
28167;BME280;15455;53.376;-6.262;2022-07-23T02:41:53;101241.88;;;14.78;100.00
28167;BME280;15455;53.376;-6.262;2022-07-23T02:44:39;101234.88;;;14.75;100.00
28167;BME280;15455;53.376;-6.262;2022-07-23T02:47:25;101233.13;;;14.76;100.00
28167;BME280;15455;53.376;-6.262;2022-07-23T02:50:10;101229.63;;;14.77;100.00
28167;BME280;15455;53.376;-6.262;2022-07-23T02:52:57;101230.47;;;14.79;100.00
28167;BME280;15455;53.376;-6.262;2022-07-23T02:55:43;101229.53;;;14.82;100.00
28167;BME280;15455;53.376;-6.262;2022-07-23T02:58:28;101219.88;;;14.85;100.00
28167;BME280;15455;53.376;-6.262;2022-07-23T03:01:14;101226.88;;;14.86;100.00
28167;BME280;15455;53.376;-6.262;2022-07-23T03:04:03;101216.38;;;14.86;100.00
28167;BME280;15455;53.376;-6.262;2022-07-23T03:06:49;101215.50;;;14.86;100.00
28167;BME280;15455;53.376;-6.262;2022-07-23T03:09:35;101211.09;;;14.88;100.00
28167;BME280;15455;53.376;-6.262;2022-07-23T03:12:21;101213.72;;;14.88;100.00
28167;BME280;15455;53.376;-6.262;2022-07-23T03:15:08;101204.94;;;14.87;100.00
28167;BME280;15455;53.376;-6.262;2022-07-23T03:17:54;101196.19;;;14.88;100.00
28167;BME280;15455;53.376;-6.262;2022-07-23T03:20:40;101194.44;;;14.87;100.00
28167;BME280;15455;53.376;-6.262;2022-07-23T03:23:28;101201.44;;;14.90;100.00
28167;BME280;15455;53.376;-6.262;2022-07-23T03:26:13;101208.41;;;14.92;100.00
28167;BME280;15455;53.376;-6.262;2022-07-23T03:28:59;101196.16;;;14.91;100.00
28167;BME280;15455;53.376;-6.262;2022-07-23T03:31:48;101203.97;;;14.94;100.00
28167;BME280;15455;53.376;-6.262;2022-07-23T03:34:33;101189.09;;;14.97;100.00
28167;BME280;15455;53.376;-6.262;2022-07-23T03:37:19;101190.78;;;14.98;100.00
28167;BME280;15455;53.376;-6.262;2022-07-23T03:40:06;101187.25;;;15.00;100.00
28167;BME280;15455;53.376;-6.262;2022-07-23T03:42:52;101177.63;;;15.01;100.00
28167;BME280;15455;53.376;-6.262;2022-07-23T03:45:37;101178.47;;;15.03;100.00
28167;BME280;15455;53.376;-6.262;2022-07-23T03:48:25;101173.22;;;15.03;100.00
28167;BME280;15455;53.376;-6.262;2022-07-23T03:51:11;101174.91;;;15.07;100.00
28167;BME280;15455;53.376;-6.262;2022-07-23T03:53:58;101165.28;;;15.06;100.00
28167;BME280;15455;53.376;-6.262;2022-07-23T03:56:43;101173.16;;;15.07;100.00
28167;BME280;15455;53.376;-6.262;2022-07-23T03:59:28;101167.88;;;15.09;100.00
28167;BME280;15455;53.376;-6.262;2022-07-23T04:02:14;101171.38;;;15.09;100.00
28167;BME280;15455;53.376;-6.262;2022-07-23T04:05:00;101166.13;;;15.09;100.00
28167;BME280;15455;53.376;-6.262;2022-07-23T04:07:45;101160.84;;;15.11;100.00
28167;BME280;15455;53.376;-6.262;2022-07-23T04:10:31;101148.56;;;15.10;100.00
28167;BME280;15455;53.376;-6.262;2022-07-23T04:13:16;101149.38;;;15.14;100.00
28167;BME280;15455;53.376;-6.262;2022-07-23T04:16:02;101150.34;;;15.09;100.00
28167;BME280;15455;53.376;-6.262;2022-07-23T04:18:48;101157.31;;;15.10;100.00
28167;BME280;15455;53.376;-6.262;2022-07-23T04:21:38;101145.09;;;15.09;100.00
28167;BME280;15455;53.376;-6.262;2022-07-23T04:24:23;101148.56;;;15.10;100.00
28167;BME280;15455;53.376;-6.262;2022-07-23T04:27:09;101143.22;;;15.16;100.00
28167;BME280;15455;53.376;-6.262;2022-07-23T04:29:55;101142.38;;;15.14;100.00
28167;BME280;15455;53.376;-6.262;2022-07-23T04:32:41;101144.09;;;15.17;100.00
28167;BME280;15455;53.376;-6.262;2022-07-23T04:35:35;101147.59;;;15.17;100.00
28167;BME280;15455;53.376;-6.262;2022-07-23T04:38:30;101147.53;;;15.20;100.00
28167;BME280;15455;53.376;-6.262;2022-07-23T04:41:18;101139.69;;;15.19;100.00
28167;BME280;15455;53.376;-6.262;2022-07-23T04:44:04;101144.03;;;15.21;100.00
28167;BME280;15455;53.376;-6.262;2022-07-23T04:46:50;101134.41;;;15.19;100.00
28167;BME280;15455;53.376;-6.262;2022-07-23T04:49:38;101141.44;;;15.20;100.00
28167;BME280;15455;53.376;-6.262;2022-07-23T04:52:24;101138.81;;;15.18;100.00
28167;BME280;15455;53.376;-6.262;2022-07-23T04:55:10;101145.88;;;15.15;100.00
28167;BME280;15455;53.376;-6.262;2022-07-23T04:57:56;101142.38;;;15.16;100.00
28167;BME280;15455;53.376;-6.262;2022-07-23T05:00:42;101142.34;;;15.17;100.00
28167;BME280;15455;53.376;-6.262;2022-07-23T05:03:29;101146.66;;;15.21;100.00
28167;BME280;15455;53.376;-6.262;2022-07-23T05:06:15;101144.03;;;15.21;100.00
28167;BME280;15455;53.376;-6.262;2022-07-23T05:09:01;101154.56;;;15.21;100.00
28167;BME280;15455;53.376;-6.262;2022-07-23T05:11:47;101149.25;;;15.23;100.00
28167;BME280;15455;53.376;-6.262;2022-07-23T05:14:34;101137.88;;;15.22;100.00
28167;BME280;15455;53.376;-6.262;2022-07-23T05:17:20;101145.78;;;15.22;100.00
28167;BME280;15455;53.376;-6.262;2022-07-23T05:20:06;101140.50;;;15.21;100.00
28167;BME280;15455;53.376;-6.262;2022-07-23T05:22:51;101149.25;;;15.23;100.00
28167;BME280;15455;53.376;-6.262;2022-07-23T05:25:37;101151.00;;;15.24;100.00
28167;BME280;15455;53.376;-6.262;2022-07-23T05:28:23;101151.03;;;15.21;100.00
28167;BME280;15455;53.376;-6.262;2022-07-23T05:31:11;101151.91;;;15.23;100.00
28167;BME280;15455;53.376;-6.262;2022-07-23T05:33:56;101142.25;;;15.22;100.00
28167;BME280;15455;53.376;-6.262;2022-07-23T05:36:42;101139.59;;;15.23;100.00
28167;BME280;15455;53.376;-6.262;2022-07-23T05:39:28;101144.75;;;15.29;100.00
28167;BME280;15455;53.376;-6.262;2022-07-23T05:42:14;101129.91;;;15.28;100.00
28167;BME280;15455;53.376;-6.262;2022-07-23T05:45:00;101127.22;;;15.32;100.00
28167;BME280;15455;53.376;-6.262;2022-07-23T05:47:47;101131.50;;;15.37;100.00
28167;BME280;15455;53.376;-6.262;2022-07-23T05:50:43;101128.88;;;15.37;100.00
28167;BME280;15455;53.376;-6.262;2022-07-23T05:53:38;101132.25;;;15.45;100.00
28167;BME280;15455;53.376;-6.262;2022-07-23T05:56:23;101126.09;;;15.46;100.00
28167;BME280;15455;53.376;-6.262;2022-07-23T05:59:10;101123.41;;;15.50;100.00
28167;BME280;15455;53.376;-6.262;2022-07-23T06:01:58;101121.59;;;15.53;100.00
28167;BME280;15455;53.376;-6.262;2022-07-23T06:04:44;101120.69;;;15.56;100.00
28167;BME280;15455;53.376;-6.262;2022-07-23T06:07:40;101122.44;;;15.55;100.00
28167;BME280;15455;53.376;-6.262;2022-07-23T06:10:26;101125.06;;;15.55;100.00
28167;BME280;15455;53.376;-6.262;2022-07-23T06:13:11;101125.03;;;15.57;100.00
28167;BME280;15455;53.376;-6.262;2022-07-23T06:15:57;101126.78;;;15.58;100.00
28167;BME280;15455;53.376;-6.262;2022-07-23T06:18:42;101125.00;;;15.58;100.00
28167;BME280;15455;53.376;-6.262;2022-07-23T06:21:28;101117.13;;;15.57;100.00
28167;BME280;15455;53.376;-6.262;2022-07-23T06:24:33;101107.56;;;15.54;100.00
28167;BME280;15455;53.376;-6.262;2022-07-23T06:27:18;101108.44;;;15.53;100.00
28167;BME280;15455;53.376;-6.262;2022-07-23T06:30:11;101110.25;;;15.50;100.00
28167;BME280;15455;53.376;-6.262;2022-07-23T06:32:57;101115.56;;;15.46;100.00
28167;BME280;15455;53.376;-6.262;2022-07-23T06:35:42;101112.09;;;15.44;100.00
28167;BME280;15455;53.376;-6.262;2022-07-23T06:38:27;101113.88;;;15.42;100.00
28167;BME280;15455;53.376;-6.262;2022-07-23T06:41:14;101113.91;;;15.41;100.00
28167;BME280;15455;53.376;-6.262;2022-07-23T06:43:59;101116.50;;;15.42;100.00
28167;BME280;15455;53.376;-6.262;2022-07-23T06:46:48;101110.34;;;15.43;100.00
28167;BME280;15455;53.376;-6.262;2022-07-23T06:49:34;101112.94;;;15.46;100.00
28167;BME280;15455;53.376;-6.262;2022-07-23T06:52:19;101104.13;;;15.49;100.00
28167;BME280;15455;53.376;-6.262;2022-07-23T06:55:05;101100.59;;;15.50;100.00
28167;BME280;15455;53.376;-6.262;2022-07-23T06:57:50;101099.66;;;15.54;100.00
28167;BME280;15455;53.376;-6.262;2022-07-23T07:00:36;101103.06;;;15.59;100.00
28167;BME280;15455;53.376;-6.262;2022-07-23T07:03:21;101104.72;;;15.65;100.00
28167;BME280;15455;53.376;-6.262;2022-07-23T07:06:07;101101.16;;;15.69;100.00
28167;BME280;15455;53.376;-6.262;2022-07-23T07:08:53;101090.66;;;15.68;100.00
28167;BME280;15455;53.376;-6.262;2022-07-23T07:11:39;101095.91;;;15.68;100.00
28167;BME280;15455;53.376;-6.262;2022-07-23T07:14:24;101092.44;;;15.67;100.00
28167;BME280;15455;53.376;-6.262;2022-07-23T07:17:10;101100.28;;;15.69;100.00
28167;BME280;15455;53.376;-6.262;2022-07-23T07:19:55;101087.06;;;15.72;100.00
28167;BME280;15455;53.376;-6.262;2022-07-23T07:22:41;101079.16;;;15.73;100.00
28167;BME280;15455;53.376;-6.262;2022-07-23T07:25:26;101080.88;;;15.76;100.00
28167;BME280;15455;53.376;-6.262;2022-07-23T07:28:12;101075.50;;;15.82;100.00
28167;BME280;15455;53.376;-6.262;2022-07-23T07:30:58;101072.78;;;15.87;100.00
28167;BME280;15455;53.376;-6.262;2022-07-23T07:33:43;101073.59;;;15.90;100.00
28167;BME280;15455;53.376;-6.262;2022-07-23T07:36:29;101069.09;;;15.95;100.00
28167;BME280;15455;53.376;-6.262;2022-07-23T07:39:15;101062.78;;;16.04;100.00
28167;BME280;15455;53.376;-6.262;2022-07-23T07:42:00;101063.50;;;16.12;100.00
28167;BME280;15455;53.376;-6.262;2022-07-23T07:44:45;101066.84;;;16.21;100.00
28167;BME280;15455;53.376;-6.262;2022-07-23T07:47:31;101054.38;;;16.29;100.00
28167;BME280;15455;53.376;-6.262;2022-07-23T07:50:16;101062.19;;;16.34;100.00
28167;BME280;15455;53.376;-6.262;2022-07-23T07:53:01;101061.28;;;16.35;100.00
28167;BME280;15455;53.376;-6.262;2022-07-23T07:55:47;101056.84;;;16.37;100.00
28167;BME280;15455;53.376;-6.262;2022-07-23T07:58:36;101048.81;;;16.43;100.00
28167;BME280;15455;53.376;-6.262;2022-07-23T08:01:21;101051.16;;;16.55;100.00
28167;BME280;15455;53.376;-6.262;2022-07-23T08:04:07;101046.56;;;16.65;100.00
28167;BME280;15455;53.376;-6.262;2022-07-23T08:06:53;101050.81;;;16.71;100.00
28167;BME280;15455;53.376;-6.262;2022-07-23T08:09:38;101047.22;;;16.75;100.00
28167;BME280;15455;53.376;-6.262;2022-07-23T08:12:25;101035.78;;;16.76;100.00
28167;BME280;15455;53.376;-6.262;2022-07-23T08:15:11;101032.09;;;16.83;100.00
28167;BME280;15455;53.376;-6.262;2022-07-23T08:17:58;101022.28;;;16.90;100.00
28167;BME280;15455;53.376;-6.262;2022-07-23T08:20:44;101012.38;;;16.99;100.00
28167;BME280;15455;53.376;-6.262;2022-07-23T08:23:30;101006.91;;;17.07;100.00
28167;BME280;15455;53.376;-6.262;2022-07-23T08:26:15;101005.16;;;17.08;100.00
28167;BME280;15455;53.376;-6.262;2022-07-23T08:29:01;101001.63;;;17.07;100.00
28167;BME280;15455;53.376;-6.262;2022-07-23T08:31:46;101005.06;;;17.11;100.00
28167;BME280;15455;53.376;-6.262;2022-07-23T08:34:32;100996.22;;;17.13;100.00
28167;BME280;15455;53.376;-6.262;2022-07-23T08:37:17;100994.34;;;17.17;100.00
28167;BME280;15455;53.376;-6.262;2022-07-23T08:40:03;100982.91;;;17.18;100.00
28167;BME280;15455;53.376;-6.262;2022-07-23T08:42:49;100990.69;;;17.23;100.00
28167;BME280;15455;53.376;-6.262;2022-07-23T08:45:40;100985.25;;;17.29;100.00
28167;BME280;15455;53.376;-6.262;2022-07-23T08:48:29;100981.63;;;17.33;100.00
28167;BME280;15455;53.376;-6.262;2022-07-23T08:51:16;100985.78;;;17.42;100.00
28167;BME280;15455;53.376;-6.262;2022-07-23T08:54:03;100981.16;;;17.50;100.00
28167;BME280;15455;53.376;-6.262;2022-07-23T08:56:50;100973.06;;;17.56;100.00
28167;BME280;15455;53.376;-6.262;2022-07-23T08:59:35;100964.16;;;17.60;100.00
28167;BME280;15455;53.376;-6.262;2022-07-23T09:02:21;100964.06;;;17.63;100.00
28167;BME280;15455;53.376;-6.262;2022-07-23T09:05:10;100955.44;;;17.58;100.00
28167;BME280;15455;53.376;-6.262;2022-07-23T09:08:16;100953.84;;;17.52;100.00
28167;BME280;15455;53.376;-6.262;2022-07-23T09:11:04;100949.50;;;17.50;100.00
28167;BME280;15455;53.376;-6.262;2022-07-23T09:13:52;100941.41;;;17.56;100.00
28167;BME280;15455;53.376;-6.262;2022-07-23T09:16:38;100943.94;;;17.59;100.00
28167;BME280;15455;53.376;-6.262;2022-07-23T09:19:27;100949.38;;;17.54;100.00
28167;BME280;15455;53.376;-6.262;2022-07-23T09:22:40;100944.31;;;17.47;100.00
28167;BME280;15455;53.376;-6.262;2022-07-23T09:25:29;100950.59;;;17.43;100.00
28167;BME280;15455;53.376;-6.262;2022-07-23T09:28:14;100938.28;;;17.42;100.00
28167;BME280;15455;53.376;-6.262;2022-07-23T09:30:59;100935.78;;;17.37;100.00
28167;BME280;15455;53.376;-6.262;2022-07-23T09:33:45;100939.47;;;17.31;100.00
28167;BME280;15455;53.376;-6.262;2022-07-23T09:36:30;100939.50;;;17.30;100.00
28167;BME280;15455;53.376;-6.262;2022-07-23T09:39:26;100937.75;;;17.29;100.00
28167;BME280;15455;53.376;-6.262;2022-07-23T09:42:13;100933.38;;;17.29;100.00
28167;BME280;15455;53.376;-6.262;2022-07-23T09:45:00;100926.25;;;17.31;100.00
28167;BME280;15455;53.376;-6.262;2022-07-23T09:47:46;100925.31;;;17.34;100.00
28167;BME280;15455;53.376;-6.262;2022-07-23T09:50:32;100923.44;;;17.39;100.00
28167;BME280;15455;53.376;-6.262;2022-07-23T09:53:24;100913.59;;;17.44;100.00
28167;BME280;15455;53.376;-6.262;2022-07-23T09:56:13;100915.09;;;17.53;100.00
28167;BME280;15455;53.376;-6.262;2022-07-23T09:59:00;100907.00;;;17.61;100.00
28167;BME280;15455;53.376;-6.262;2022-07-23T10:01:53;100910.09;;;17.74;100.00
28167;BME280;15455;53.376;-6.262;2022-07-23T10:04:40;100908.91;;;17.85;100.00
28167;BME280;15455;53.376;-6.262;2022-07-23T10:07:40;100896.94;;;18.03;100.00
28167;BME280;15455;53.376;-6.262;2022-07-23T10:10:50;100900.03;;;18.16;100.00
28167;BME280;15455;53.376;-6.262;2022-07-23T10:14:09;100889.16;;;18.26;100.00
28167;BME280;15455;53.376;-6.262;2022-07-23T10:17:08;100890.69;;;18.34;100.00
28167;BME280;15455;53.376;-6.262;2022-07-23T10:19:54;100885.09;;;18.44;100.00
28167;BME280;15455;53.376;-6.262;2022-07-23T10:22:48;100881.16;;;18.55;100.00
28167;BME280;15455;53.376;-6.262;2022-07-23T10:25:48;100880.72;;;18.69;100.00
28167;BME280;15455;53.376;-6.262;2022-07-23T10:32:26;100873.88;;;18.89;100.00
28167;BME280;15455;53.376;-6.262;2022-07-23T10:35:29;100863.03;;;18.97;100.00
28167;BME280;15455;53.376;-6.262;2022-07-23T10:38:31;100860.00;;;19.07;100.00
28167;BME280;15455;53.376;-6.262;2022-07-23T10:41:39;100854.47;;;19.14;100.00
28167;BME280;15455;53.376;-6.262;2022-07-23T10:44:38;100847.47;;;19.13;100.00
28167;BME280;15455;53.376;-6.262;2022-07-23T10:47:27;100846.88;;;19.04;100.00
28167;BME280;15455;53.376;-6.262;2022-07-23T10:50:27;100834.91;;;18.94;100.00
28167;BME280;15455;53.376;-6.262;2022-07-23T10:53:17;100828.81;;;18.92;100.00
28167;BME280;15455;53.376;-6.262;2022-07-23T10:56:03;100826.22;;;18.90;100.00
28167;BME280;15455;53.376;-6.262;2022-07-23T10:58:49;100825.38;;;18.90;100.00
28167;BME280;15455;53.376;-6.262;2022-07-23T11:01:36;100820.97;;;18.89;100.00
28167;BME280;15455;53.376;-6.262;2022-07-23T11:04:49;100824.56;;;18.88;100.00
28167;BME280;15455;53.376;-6.262;2022-07-23T11:07:36;100828.97;;;18.87;100.00
28167;BME280;15455;53.376;-6.262;2022-07-23T11:10:36;100823.69;;;18.87;100.00
28167;BME280;15455;53.376;-6.262;2022-07-23T11:16:19;100826.06;;;18.95;100.00
28167;BME280;15455;53.376;-6.262;2022-07-23T11:19:05;100815.25;;;19.01;100.00
28167;BME280;15455;53.376;-6.262;2022-07-23T11:21:52;100806.00;;;19.13;100.00
28167;BME280;15455;53.376;-6.262;2022-07-23T11:24:50;100805.63;;;19.24;100.00
28167;BME280;15455;53.376;-6.262;2022-07-23T11:27:40;100793.91;;;19.30;100.00
28167;BME280;15455;53.376;-6.262;2022-07-23T11:36:02;100787.50;;;19.59;100.00
28167;BME280;15455;53.376;-6.262;2022-07-23T11:38:49;100784.56;;;19.89;100.00
28167;BME280;15455;53.376;-6.262;2022-07-23T11:41:44;100777.25;;;20.16;100.00
28167;BME280;15455;53.376;-6.262;2022-07-23T11:44:35;100770.34;;;20.34;100.00
28167;BME280;15455;53.376;-6.262;2022-07-23T11:47:23;100768.72;;;20.51;100.00
28167;BME280;15455;53.376;-6.262;2022-07-23T11:50:09;100760.06;;;20.68;100.00
28167;BME280;15455;53.376;-6.262;2022-07-23T11:52:55;100751.06;;;20.91;100.00
28167;BME280;15455;53.376;-6.262;2022-07-23T11:55:41;100747.13;;;21.19;100.00
28167;BME280;15455;53.376;-6.262;2022-07-23T11:58:26;100731.69;;;21.65;100.00
28167;BME280;15455;53.376;-6.262;2022-07-23T12:01:12;100730.47;;;21.90;100.00
28167;BME280;15455;53.376;-6.262;2022-07-23T12:03:58;100737.44;;;22.10;100.00
28167;BME280;15455;53.376;-6.262;2022-07-23T12:06:44;100732.81;;;22.13;100.00
28167;BME280;15455;53.376;-6.262;2022-07-23T12:09:30;100742.06;;;22.06;100.00
28167;BME280;15455;53.376;-6.262;2022-07-23T12:12:15;100738.44;;;21.90;100.00
28167;BME280;15455;53.376;-6.262;2022-07-23T12:15:01;100734.25;;;22.03;100.00
28167;BME280;15455;53.376;-6.262;2022-07-23T12:17:50;100734.59;;;21.95;100.00
28167;BME280;15455;53.376;-6.262;2022-07-23T12:20:47;100734.91;;;21.89;100.00
28167;BME280;15455;53.376;-6.262;2022-07-23T12:23:33;100737.09;;;21.81;100.00
28167;BME280;15455;53.376;-6.262;2022-07-23T12:26:20;100742.88;;;21.72;100.00
28167;BME280;15455;53.376;-6.262;2022-07-23T12:29:05;100736.78;;;21.70;100.00
28167;BME280;15455;53.376;-6.262;2022-07-23T12:31:51;100730.28;;;21.75;100.00
28167;BME280;15455;53.376;-6.262;2022-07-23T12:34:38;100738.53;;;22.23;100.00
28167;BME280;15455;53.376;-6.262;2022-07-23T12:37:26;100734.03;;;22.92;100.00
28167;BME280;15455;53.376;-6.262;2022-07-23T12:40:56;100731.22;;;23.75;100.00
28167;BME280;15455;53.376;-6.262;2022-07-23T12:43:44;100722.34;;;23.90;98.88
28167;BME280;15455;53.376;-6.262;2022-07-23T12:46:33;100710.72;;;24.22;97.69
28167;BME280;15455;53.376;-6.262;2022-07-23T12:49:27;100711.44;;;24.98;99.50
28167;BME280;15455;53.376;-6.262;2022-07-23T12:52:15;100711.38;;;25.26;91.31
28167;BME280;15455;53.376;-6.262;2022-07-23T12:55:01;100702.63;;;25.52;88.30
28167;BME280;15455;53.376;-6.262;2022-07-23T12:57:49;100717.97;;;26.03;91.86
28167;BME280;15455;53.376;-6.262;2022-07-23T13:00:55;100712.03;;;26.38;86.87
28167;BME280;15455;53.376;-6.262;2022-07-23T13:03:41;100695.88;;;26.39;84.20
28167;BME280;15455;53.376;-6.262;2022-07-23T13:06:30;100695.84;;;26.26;85.31
28167;BME280;15455;53.376;-6.262;2022-07-23T13:09:25;100682.69;;;26.23;84.96
28167;BME280;15455;53.376;-6.262;2022-07-23T13:12:16;100677.25;;;26.38;83.88
28167;BME280;15455;53.376;-6.262;2022-07-23T13:15:02;100657.28;;;26.67;79.61
28167;BME280;15455;53.376;-6.262;2022-07-23T13:17:47;100652.78;;;26.81;77.91
28167;BME280;15455;53.376;-6.262;2022-07-23T13:20:35;100660.19;;;26.51;75.50
28167;BME280;15455;53.376;-6.262;2022-07-23T13:23:23;100667.59;;;26.22;77.56
28167;BME280;15455;53.376;-6.262;2022-07-23T13:26:09;100661.91;;;26.14;79.57
28167;BME280;15455;53.376;-6.262;2022-07-23T13:28:55;100658.81;;;26.46;80.58
28167;BME280;15455;53.376;-6.262;2022-07-23T13:31:41;100654.59;;;26.67;77.52
28167;BME280;15455;53.376;-6.262;2022-07-23T13:34:27;100651.53;;;26.74;76.12
28167;BME280;15455;53.376;-6.262;2022-07-23T13:37:13;100647.00;;;26.61;76.17
28167;BME280;15455;53.376;-6.262;2022-07-23T13:39:58;100646.19;;;26.48;81.55
28167;BME280;15455;53.376;-6.262;2022-07-23T13:42:43;100647.69;;;26.13;82.43
28167;BME280;15455;53.376;-6.262;2022-07-23T13:45:29;100645.16;;;25.72;79.64
28167;BME280;15455;53.376;-6.262;2022-07-23T13:48:16;100644.06;;;25.61;83.82
28167;BME280;15455;53.376;-6.262;2022-07-23T13:51:01;100651.22;;;25.48;84.33
28167;BME280;15455;53.376;-6.262;2022-07-23T13:53:47;100635.84;;;25.10;80.63
28167;BME280;15455;53.376;-6.262;2022-07-23T13:56:34;100648.81;;;25.16;84.70
28167;BME280;15455;53.376;-6.262;2022-07-23T13:59:20;100665.56;;;24.91;82.42
28167;BME280;15455;53.376;-6.262;2022-07-23T14:02:06;100657.88;;;24.72;84.04
28167;BME280;15455;53.376;-6.262;2022-07-23T14:05:10;100656.91;;;24.58;85.04
28167;BME280;15455;53.376;-6.262;2022-07-23T14:07:56;100658.25;;;24.51;85.69
28167;BME280;15455;53.376;-6.262;2022-07-23T14:10:42;100647.59;;;24.66;86.74
28167;BME280;15455;53.376;-6.262;2022-07-23T14:13:27;100645.09;;;24.62;85.80
28167;BME280;15455;53.376;-6.262;2022-07-23T14:16:14;100648.94;;;24.73;88.10
28167;BME280;15455;53.376;-6.262;2022-07-23T14:19:02;100616.09;;;24.85;87.13
28167;BME280;15455;53.376;-6.262;2022-07-23T14:21:48;100606.63;;;24.94;87.43
28167;BME280;15455;53.376;-6.262;2022-07-23T14:24:34;100624.06;;;25.00;85.72
28167;BME280;15455;53.376;-6.262;2022-07-23T14:27:20;100639.69;;;25.06;85.96